Time;durP1;ratioP1;P1;durP2;ratioP2;P2;SDS_P1;SDS_P2;PMS_P1;PMS_P2;Temp;Humidity;BMP_temperature;BMP_pressure;BME280_temperature;BME280_humidity;BME280_pressure;Samples;Min_cycle;Max_cycle;Signal;HPM_P1;HPM_P2
2022/03/24 00:02:10;;;;;;;0.10;0.10;;;2.30;99.90;;;;;;5017717;28;20049;-69
2022/03/24 00:04:36;;;;;;;0.30;0.28;;;2.30;99.90;;;;;;5018032;28;20549;-69
2022/03/24 00:07:02;;;;;;;0.15;0.15;;;2.20;99.90;;;;;;5017656;28;20038;-69
2022/03/24 00:09:28;;;;;;;1.10;0.25;;;2.30;99.90;;;;;;5017629;28;20041;-69
2022/03/24 00:11:55;;;;;;;0.10;0.10;;;2.20;99.90;;;;;;5017382;28;20373;-69
2022/03/24 00:14:21;;;;;;;1.25;0.55;;;2.20;99.90;;;;;;5017471;28;20043;-69
2022/03/24 00:16:47;;;;;;;0.80;0.80;;;2.10;99.90;;;;;;5017475;28;20516;-69
2022/03/24 00:19:16;;;;;;;0.10;0.10;;;2.10;99.90;;;;;;5017625;28;20038;-69
2022/03/24 00:21:43;;;;;;;0.10;0.10;;;2.20;99.90;;;;;;5017042;28;20030;-69
2022/03/24 00:24:09;;;;;;;0.28;0.28;;;2.10;99.90;;;;;;5017239;28;20072;-69
2022/03/24 00:26:35;;;;;;;0.10;0.10;;;2.00;99.90;;;;;;5016867;28;20038;-69
2022/03/24 00:29:02;;;;;;;0.22;0.22;;;2.10;99.90;;;;;;5018085;28;20095;-69
2022/03/24 00:31:29;;;;;;;0.55;0.55;;;2.00;99.90;;;;;;5017144;28;20038;-69
2022/03/24 00:33:55;;;;;;;0.20;0.20;;;2.00;99.90;;;;;;5017044;28;20049;-69
2022/03/24 00:36:21;;;;;;;0.20;0.20;;;2.00;99.90;;;;;;5015877;28;20442;-69
2022/03/24 00:38:52;;;;;;;0.93;0.93;;;1.90;99.90;;;;;;5016760;28;20044;-69
2022/03/24 00:41:21;;;;;;;;;;;1.90;99.90;;;;;;5017141;28;20037;-69
2022/03/24 00:43:48;;;;;;;0.50;0.50;;;1.90;99.90;;;;;;5016930;28;19942;-69
2022/03/24 00:46:15;;;;;;;0.10;0.10;;;1.80;99.90;;;;;;5016931;28;20042;-69
2022/03/24 00:48:41;;;;;;;0.10;0.10;;;1.90;99.90;;;;;;5016597;28;20042;-69
2022/03/24 00:51:07;;;;;;;0.65;0.65;;;1.90;99.90;;;;;;5016771;28;20046;-69
2022/03/24 00:53:33;;;;;;;0.38;0.38;;;1.80;99.90;;;;;;5016816;28;20058;-69
2022/03/24 00:55:59;;;;;;;0.32;0.32;;;1.80;99.90;;;;;;5017021;28;20148;-69
2022/03/24 00:58:25;;;;;;;0.98;0.55;;;1.80;99.90;;;;;;5016473;28;20034;-69
2022/03/24 01:00:53;;;;;;;0.50;0.50;;;1.80;99.90;;;;;;5015845;28;20398;-69
2022/03/24 01:03:20;;;;;;;1.77;0.60;;;1.90;99.90;;;;;;5016881;28;20038;-69
2022/03/24 01:05:47;;;;;;;0.13;0.13;;;1.90;99.90;;;;;;5016595;28;20514;-69
2022/03/24 01:08:13;;;;;;;0.75;0.75;;;1.90;99.90;;;;;;5016669;28;20041;-69
2022/03/24 01:10:39;;;;;;;0.28;0.28;;;1.90;99.90;;;;;;5016627;28;20125;-69
2022/03/24 01:13:05;;;;;;;0.15;0.15;;;1.70;99.90;;;;;;5015743;28;20141;-69
2022/03/24 01:15:31;;;;;;;0.20;0.20;;;1.70;99.90;;;;;;5016055;28;20132;-69
2022/03/24 01:18:00;;;;;;;0.65;0.65;;;1.60;99.90;;;;;;5016585;28;20522;-69
2022/03/24 01:20:28;;;;;;;0.40;0.40;;;1.60;99.90;;;;;;5016215;28;20083;-69
2022/03/24 01:22:55;;;;;;;0.32;0.32;;;1.60;99.90;;;;;;5016314;28;20050;-69
2022/03/24 01:25:23;;;;;;;0.28;0.28;;;1.40;99.90;;;;;;5016445;28;20041;-69
2022/03/24 01:27:50;;;;;;;1.58;0.40;;;1.60;99.90;;;;;;5015619;28;20503;-69
2022/03/24 01:30:16;;;;;;;0.10;0.10;;;1.60;99.90;;;;;;5016023;28;20034;-69
2022/03/24 01:32:41;;;;;;;0.38;0.35;;;1.50;99.90;;;;;;5016266;28;20042;-69
2022/03/24 01:35:07;;;;;;;0.20;0.20;;;1.50;99.90;;;;;;5015944;28;20127;-69
2022/03/24 01:37:35;;;;;;;0.10;0.10;;;1.40;99.90;;;;;;5016233;28;20121;-69
2022/03/24 01:40:02;;;;;;;0.10;0.10;;;1.40;99.90;;;;;;5015553;28;20037;-69
2022/03/24 01:42:28;;;;;;;0.00;0.00;;;1.30;99.90;;;;;;5015429;28;20069;-69
2022/03/24 01:44:56;;;;;;;0.10;0.10;;;1.30;99.90;;;;;;5015568;28;20076;-69
2022/03/24 01:47:22;;;;;;;0.22;0.22;;;1.40;99.90;;;;;;5015610;28;20038;-69
2022/03/24 01:49:48;;;;;;;0.70;0.70;;;1.30;99.90;;;;;;5015480;28;20391;-69
2022/03/24 01:52:17;;;;;;;0.10;0.10;;;1.40;99.90;;;;;;5015927;28;20120;-69
2022/03/24 01:54:51;;;;;;;0.10;0.10;;;1.30;99.90;;;;;;5015240;28;20555;-69
2022/03/24 01:57:19;;;;;;;0.35;0.35;;;1.20;99.90;;;;;;5015719;28;20029;-68
2022/03/24 01:59:45;;;;;;;0.15;0.15;;;1.10;99.90;;;;;;5015176;28;20044;-69
2022/03/24 02:02:11;;;;;;;0.10;0.10;;;1.10;99.90;;;;;;5015453;28;20120;-69
2022/03/24 02:04:38;;;;;;;0.10;0.10;;;1.10;99.90;;;;;;5015598;28;20081;-69
2022/03/24 02:07:05;;;;;;;0.25;0.25;;;1.20;99.90;;;;;;5015405;28;20080;-69
2022/03/24 02:09:33;;;;;;;0.30;0.30;;;1.20;99.90;;;;;;5015684;28;20125;-69
2022/03/24 02:12:00;;;;;;;0.20;0.20;;;1.20;99.90;;;;;;5014365;28;20539;-69
2022/03/24 02:14:29;;;;;;;0.55;0.55;;;1.10;99.90;;;;;;5014796;28;20049;-69
2022/03/24 02:16:55;;;;;;;0.10;0.10;;;1.20;99.90;;;;;;5016281;28;20066;-69
2022/03/24 02:19:24;;;;;;;0.30;0.30;;;1.10;99.90;;;;;;5015462;28;20061;-69
2022/03/24 02:21:53;;;;;;;0.15;0.15;;;1.20;99.90;;;;;;5015478;28;20041;-69
2022/03/24 02:24:21;;;;;;;1.45;0.65;;;1.10;99.90;;;;;;5015130;28;20131;-69
2022/03/24 02:26:47;;;;;;;0.95;0.90;;;1.00;99.90;;;;;;5015556;28;20135;-69
2022/03/24 02:29:16;;;;;;;0.13;0.13;;;1.10;99.90;;;;;;5015696;28;20095;-69
2022/03/24 02:31:49;;;;;;;0.15;0.15;;;1.10;99.90;;;;;;5015355;28;20041;-69
2022/03/24 02:37:07;;;;;;;0.20;0.20;;;1.00;99.90;;;;;;5014865;28;20523;-69
2022/03/24 02:39:34;;;;;;;0.15;0.15;;;1.00;99.90;;;;;;5014968;28;20083;-69
2022/03/24 02:42:01;;;;;;;0.13;0.13;;;1.00;99.90;;;;;;5014444;28;20038;-69
2022/03/24 02:44:30;;;;;;;0.15;0.15;;;0.90;99.90;;;;;;5015782;28;20137;-69
2022/03/24 02:46:58;;;;;;;0.30;0.30;;;0.80;99.90;;;;;;5014805;28;20499;-69
2022/03/24 02:49:26;;;;;;;0.25;0.25;;;0.90;99.90;;;;;;5015160;28;20073;-69
2022/03/24 02:51:58;;;;;;;0.15;0.15;;;0.80;99.90;;;;;;5015384;28;20480;-69
2022/03/24 02:54:26;;;;;;;0.13;0.13;;;0.70;99.90;;;;;;5015789;28;20479;-69
2022/03/24 02:56:52;;;;;;;0.17;0.17;;;0.80;99.90;;;;;;5014580;28;20029;-69
2022/03/24 02:59:18;;;;;;;0.10;0.10;;;0.90;99.90;;;;;;5014744;28;20042;-69
2022/03/24 03:01:52;;;;;;;0.82;0.43;;;0.80;99.90;;;;;;5015245;28;20045;-69
2022/03/24 03:04:18;;;;;;;0.20;0.20;;;0.90;99.90;;;;;;5015366;28;20052;-69
2022/03/24 03:06:45;;;;;;;0.10;0.10;;;0.90;99.90;;;;;;5015250;28;20038;-69
2022/03/24 03:09:14;;;;;;;0.55;0.55;;;0.70;99.90;;;;;;5014959;28;20506;-69
2022/03/24 03:11:44;;;;;;;0.10;0.10;;;0.80;99.90;;;;;;5014713;28;20468;-69
2022/03/24 03:14:12;;;;;;;0.10;0.10;;;0.90;99.90;;;;;;5014918;28;20511;-69
2022/03/24 03:16:38;;;;;;;0.10;0.10;;;0.80;99.90;;;;;;5014547;28;20507;-69
2022/03/24 03:19:06;;;;;;;0.55;0.55;;;0.80;99.90;;;;;;5014547;28;20038;-69
2022/03/24 03:21:32;;;;;;;0.47;0.47;;;0.60;99.90;;;;;;5014801;28;20507;-69
2022/03/24 03:23:58;;;;;;;0.20;0.20;;;0.50;99.90;;;;;;5018335;28;20041;-69
2022/03/24 03:26:24;;;;;;;0.20;0.20;;;0.70;99.90;;;;;;5018401;28;20038;-69
2022/03/24 03:28:53;;;;;;;0.80;0.30;;;0.50;99.90;;;;;;5018298;28;20041;-69
2022/03/24 03:31:20;;;;;;;1.00;1.00;;;0.50;99.90;;;;;;5018889;28;20088;-69
2022/03/24 03:33:46;;;;;;;0.15;0.15;;;0.50;99.90;;;;;;5018605;28;20054;-69
2022/03/24 03:36:12;;;;;;;0.20;0.20;;;0.40;99.90;;;;;;5018642;28;20038;-69
2022/03/24 03:38:39;;;;;;;0.30;0.30;;;0.50;99.90;;;;;;5018520;28;20117;-68
2022/03/24 03:41:06;;;;;;;0.30;0.30;;;0.40;99.90;;;;;;5019199;28;20500;-69
2022/03/24 03:43:34;;;;;;;0.15;0.15;;;0.40;99.90;;;;;;5018399;28;20048;-69
2022/03/24 03:46:01;;;;;;;0.10;0.10;;;0.20;99.90;;;;;;5018356;28;20037;-69
2022/03/24 03:48:26;;;;;;;0.28;0.28;;;0.30;99.90;;;;;;5018219;28;20038;-69
2022/03/24 03:50:52;;;;;;;0.10;0.10;;;0.20;99.90;;;;;;5018014;28;20041;-69
2022/03/24 03:53:18;;;;;;;0.10;0.10;;;0.30;99.90;;;;;;5018413;28;20069;-69
2022/03/24 03:55:44;;;;;;;0.00;0.00;;;0.40;99.90;;;;;;5018218;28;20357;-69
2022/03/24 03:58:11;;;;;;;0.10;0.10;;;0.30;99.90;;;;;;5017987;28;20180;-69
2022/03/24 04:00:52;;;;;;;0.20;0.20;;;0.40;99.90;;;;;;5018049;28;20042;-69
2022/03/24 04:03:36;;;;;;;0.28;0.28;;;0.40;99.90;;;;;;5017671;28;20428;-69
2022/03/24 04:06:05;;;;;;;0.30;0.30;;;0.30;99.90;;;;;;5018019;28;20117;-69
2022/03/24 04:08:31;;;;;;;0.10;0.10;;;0.40;99.90;;;;;;5017954;28;20530;-68
2022/03/24 04:10:58;;;;;;;0.10;0.10;;;0.30;99.90;;;;;;5017525;28;20037;-69
2022/03/24 04:13:24;;;;;;;0.65;0.50;;;0.30;99.90;;;;;;5017397;28;20519;-69
2022/03/24 04:15:51;;;;;;;0.10;0.10;;;0.40;99.90;;;;;;5017522;28;20072;-69
2022/03/24 04:18:17;;;;;;;0.22;0.22;;;0.30;99.90;;;;;;5017554;28;20502;-69
2022/03/24 04:20:44;;;;;;;0.10;0.10;;;0.30;99.90;;;;;;5017648;28;20049;-69
2022/03/24 04:23:11;;;;;;;0.57;0.57;;;0.30;99.90;;;;;;5017528;28;20046;-69
2022/03/24 04:25:37;;;;;;;0.50;0.50;;;0.20;99.90;;;;;;5017258;28;20041;-69
2022/03/24 04:28:04;;;;;;;0.10;0.10;;;0.20;99.90;;;;;;5017732;28;20110;-69
2022/03/24 04:30:31;;;;;;;0.38;0.38;;;0.10;99.90;;;;;;5017782;28;20111;-69
2022/03/24 04:32:58;;;;;;;0.20;0.20;;;0.10;99.90;;;;;;5017831;28;20082;-69
2022/03/24 04:35:24;;;;;;;0.32;0.32;;;0.10;99.90;;;;;;5016064;28;20049;-69
2022/03/24 04:37:50;;;;;;;0.88;0.45;;;0.00;99.90;;;;;;5017044;28;20038;-69
2022/03/24 04:40:19;;;;;;;0.10;0.10;;;-0.10;99.90;;;;;;5017637;28;20052;-69
2022/03/24 04:42:49;;;;;;;0.10;0.10;;;0.00;99.90;;;;;;5016887;28;20035;-69
2022/03/24 04:45:17;;;;;;;0.10;0.10;;;0.00;99.90;;;;;;5016939;28;20084;-69
2022/03/24 04:47:44;;;;;;;0.00;0.00;;;-0.10;99.90;;;;;;5016892;28;20033;-69
2022/03/24 04:50:11;;;;;;;0.40;0.40;;;0.00;99.90;;;;;;5016901;28;20048;-69
2022/03/24 04:52:37;;;;;;;0.50;0.32;;;-0.20;99.90;;;;;;5016589;28;20037;-69
2022/03/24 04:55:04;;;;;;;0.10;0.10;;;0.00;99.90;;;;;;5016901;28;20506;-69
2022/03/24 04:57:33;;;;;;;0.50;0.50;;;0.00;99.90;;;;;;5016884;28;20050;-69
2022/03/24 04:59:59;;;;;;;0.10;0.10;;;0.00;99.90;;;;;;5016287;28;20443;-69
2022/03/24 05:02:28;;;;;;;0.28;0.28;;;-0.10;99.90;;;;;;5017401;28;20112;-69
2022/03/24 05:04:54;;;;;;;0.10;0.10;;;-0.10;99.90;;;;;;5017134;28;20120;-69
2022/03/24 05:07:20;;;;;;;0.13;0.13;;;-0.10;99.90;;;;;;5016574;28;20065;-69
2022/03/24 05:09:50;;;;;;;0.10;0.10;;;-0.10;99.90;;;;;;5017118;28;20033;-70
2022/03/24 05:12:16;;;;;;;0.30;0.30;;;-0.20;99.90;;;;;;5015841;28;20034;-70
2022/03/24 05:14:43;;;;;;;0.00;0.00;;;-0.20;99.90;;;;;;5016657;28;20069;-69
2022/03/24 05:17:09;;;;;;;0.28;0.28;;;-0.20;99.90;;;;;;5016079;28;20070;-70
2022/03/24 05:19:39;;;;;;;1.35;0.68;;;-0.10;99.90;;;;;;5016099;28;20064;-69
2022/03/24 05:22:06;;;;;;;0.17;0.17;;;-0.20;99.90;;;;;;5016126;28;20041;-69
2022/03/24 05:24:32;;;;;;;0.20;0.20;;;-0.20;99.90;;;;;;5016217;28;20084;-69
2022/03/24 05:26:58;;;;;;;0.45;0.45;;;-0.20;99.90;;;;;;5015804;28;20044;-70
2022/03/24 05:29:24;;;;;;;0.98;0.52;;;-0.30;99.90;;;;;;5015933;28;20125;-69
2022/03/24 05:31:50;;;;;;;0.68;0.68;;;-0.30;99.90;;;;;;5016688;28;20439;-69
2022/03/24 05:34:16;;;;;;;0.30;0.30;;;-0.30;99.90;;;;;;5015856;28;20052;-69
2022/03/24 05:36:45;;;;;;;0.20;0.20;;;-0.40;99.90;;;;;;5016030;28;20480;-69
2022/03/24 05:39:11;;;;;;;0.00;0.00;;;-0.40;99.90;;;;;;5015673;28;20068;-69
2022/03/24 05:41:37;;;;;;;2.28;1.27;;;-0.40;99.90;;;;;;5015666;28;20029;-69
2022/03/24 05:44:03;;;;;;;0.95;0.80;;;-0.30;99.90;;;;;;5015894;28;20057;-69
2022/03/24 05:46:31;;;;;;;0.15;0.15;;;-0.40;99.90;;;;;;5015678;28;20169;-69
2022/03/24 05:48:58;;;;;;;0.10;0.10;;;-0.20;99.90;;;;;;5016125;28;20049;-69
2022/03/24 05:51:27;;;;;;;0.15;0.15;;;-0.10;99.90;;;;;;5015533;28;20037;-69
2022/03/24 05:53:53;;;;;;;0.10;0.10;;;-0.10;99.90;;;;;;5015427;28;20044;-69
2022/03/24 05:56:19;;;;;;;0.10;0.10;;;-0.20;99.90;;;;;;5015441;28;20188;-69
2022/03/24 05:58:46;;;;;;;0.30;0.15;;;-0.20;99.90;;;;;;5015457;28;20518;-69
2022/03/24 06:01:15;;;;;;;0.10;0.10;;;0.00;99.90;;;;;;5015539;28;20034;-69
2022/03/24 06:03:45;;;;;;;0.10;0.10;;;-0.10;99.90;;;;;;5015526;28;20045;-69
2022/03/24 06:06:12;;;;;;;0.10;0.10;;;0.00;99.90;;;;;;5014934;28;20034;-69
2022/03/24 06:08:42;;;;;;;0.10;0.10;;;0.00;99.90;;;;;;5015304;28;20038;-69
2022/03/24 06:11:13;;;;;;;0.20;0.20;;;0.10;99.90;;;;;;5015156;28;20037;-69
2022/03/24 06:13:42;;;;;;;2.17;0.65;;;0.20;99.90;;;;;;5014778;28;20054;-69
2022/03/24 06:16:09;;;;;;;0.28;0.28;;;0.00;99.90;;;;;;5015539;28;20488;-70
2022/03/24 06:18:36;;;;;;;0.15;0.15;;;0.20;99.90;;;;;;5013873;28;20129;-70
2022/03/24 06:21:04;;;;;;;0.15;0.15;;;0.20;99.90;;;;;;5014676;28;20116;-70
2022/03/24 06:23:30;;;;;;;0.22;0.22;;;0.30;99.90;;;;;;5015031;28;20053;-70
2022/03/24 06:25:56;;;;;;;0.20;0.20;;;0.20;99.90;;;;;;5014980;28;20041;-70
2022/03/24 06:28:23;;;;;;;0.75;0.75;;;0.40;99.90;;;;;;5014670;28;20373;-70
2022/03/24 06:30:50;;;;;;;0.10;0.10;;;0.50;99.90;;;;;;5013563;28;20041;-69
2022/03/24 06:33:19;;;;;;;0.10;0.10;;;0.50;99.90;;;;;;5020089;28;20038;-68
2022/03/24 06:35:48;;;;;;;0.32;0.32;;;0.50;99.90;;;;;;5020642;28;20038;-70
2022/03/24 06:38:15;;;;;;;0.20;0.20;;;0.70;99.90;;;;;;5014475;28;20046;-69
2022/03/24 06:40:42;;;;;;;0.17;0.17;;;0.70;99.90;;;;;;5014642;28;20120;-70
2022/03/24 06:43:09;;;;;;;0.57;0.57;;;0.80;99.90;;;;;;5013770;28;20048;-70
2022/03/24 06:45:36;;;;;;;0.40;0.40;;;0.70;99.90;;;;;;5014095;28;20403;-70
2022/03/24 06:48:04;;;;;;;0.22;0.22;;;0.80;91.30;;;;;;5018632;28;20037;-70
2022/03/24 06:50:30;;;;;;;0.10;0.10;;;1.00;99.90;;;;;;5028247;28;20037;-70
2022/03/24 06:52:56;;;;;;;0.10;0.10;;;1.20;99.90;;;;;;5014441;28;20041;-70
2022/03/24 06:55:21;;;;;;;0.43;0.43;;;1.30;99.80;;;;;;5014215;28;20088;-70
2022/03/24 06:57:47;;;;;;;0.30;0.30;;;1.20;86.50;;;;;;5011126;28;20120;-70
2022/03/24 07:00:14;;;;;;;0.10;0.10;;;1.30;91.90;;;;;;5013502;28;20046;-70
2022/03/24 07:02:45;;;;;;;0.25;0.25;;;1.20;99.90;;;;;;5014015;28;20034;-70
2022/03/24 07:05:11;;;;;;;0.10;0.10;;;1.50;99.90;;;;;;5017887;28;20049;-70
2022/03/24 07:07:38;;;;;;;0.10;0.10;;;1.60;99.90;;;;;;5013279;28;20026;-72
2022/03/24 07:10:05;;;;;;;0.30;0.30;;;1.70;99.20;;;;;;5014248;28;20045;-71
2022/03/24 07:12:31;;;;;;;0.10;0.10;;;1.80;95.50;;;;;;5017973;28;20512;-71
2022/03/24 07:14:57;;;;;;;0.38;0.38;;;1.80;91.70;;;;;;5034119;28;20104;-71
2022/03/24 07:17:23;;;;;;;0.10;0.10;;;1.80;92.40;;;;;;5034085;28;20044;-71
2022/03/24 07:19:50;;;;;;;2.10;1.17;;;1.90;83.30;;;;;;5034257;28;20543;-71
2022/03/24 07:22:16;;;;;;;0.10;0.10;;;2.00;84.60;;;;;;5032819;28;20033;-71
2022/03/24 07:24:42;;;;;;;0.43;0.43;;;2.10;77.40;;;;;;5032317;28;20103;-71
2022/03/24 07:27:09;;;;;;;0.10;0.10;;;2.10;90.60;;;;;;5025824;28;20052;-71
2022/03/24 07:29:36;;;;;;;0.68;0.68;;;2.20;91.20;;;;;;4998047;28;20053;-72
2022/03/24 07:32:02;;;;;;;0.10;0.10;;;2.20;92.60;;;;;;4997741;28;20046;-72
2022/03/24 07:34:28;;;;;;;0.20;0.20;;;2.40;99.90;;;;;;5013792;28;20048;-72
2022/03/24 07:36:55;;;;;;;0.65;0.65;;;2.40;97.50;;;;;;5014208;28;20045;-71
2022/03/24 07:39:20;;;;;;;0.20;0.20;;;2.70;98.00;;;;;;5014419;28;20084;-72
2022/03/24 07:41:46;;;;;;;0.68;0.65;;;2.70;83.90;;;;;;5014197;28;20042;-71
2022/03/24 07:44:12;;;;;;;0.10;0.10;;;2.70;93.30;;;;;;5011505;28;20512;-71
2022/03/24 07:46:38;;;;;;;3.70;0.82;;;2.80;91.20;;;;;;5012259;28;20045;-71
2022/03/24 07:49:04;;;;;;;0.28;0.28;;;2.90;78.10;;;;;;5014112;28;20041;-70
2022/03/24 07:51:34;;;;;;;0.20;0.20;;;2.90;75.90;;;;;;5026034;28;20041;-70
2022/03/24 07:54:03;;;;;;;1.13;0.93;;;3.10;95.30;;;;;;4999034;28;20042;-70
2022/03/24 07:56:30;;;;;;;0.10;0.10;;;3.30;94.00;;;;;;4996865;28;20164;-71
2022/03/24 07:59:00;;;;;;;0.25;0.25;;;3.40;84.40;;;;;;5012393;28;20412;-71
2022/03/24 08:01:29;;;;;;;0.10;0.10;;;3.60;81.90;;;;;;5032332;28;20033;-71
2022/03/24 08:03:58;;;;;;;0.13;0.13;;;3.60;89.80;;;;;;5018610;28;20038;-71
2022/03/24 08:06:25;;;;;;;0.17;0.17;;;3.80;79.50;;;;;;5015051;28;20113;-70
2022/03/24 08:08:52;;;;;;;0.20;0.20;;;4.00;90.80;;;;;;5014175;28;20033;-70
2022/03/24 08:11:18;;;;;;;0.75;0.75;;;4.00;77.50;;;;;;5017787;28;20030;-71
2022/03/24 08:13:47;;;;;;;0.10;0.10;;;4.10;72.20;;;;;;5027723;28;20502;-70
2022/03/24 08:16:15;;;;;;;0.57;0.50;;;4.20;69.20;;;;;;5030546;28;20509;-70
2022/03/24 08:18:40;;;;;;;0.80;0.80;;;4.30;71.20;;;;;;5018874;28;20488;-71
2022/03/24 08:21:08;;;;;;;0.10;0.10;;;4.50;83.90;;;;;;5017567;28;20040;-71
2022/03/24 08:23:33;;;;;;;0.35;0.35;;;4.60;80.80;;;;;;5016922;28;20092;-71
2022/03/24 08:25:59;;;;;;;0.20;0.20;;;4.80;63.20;;;;;;5016812;28;20038;-71
2022/03/24 08:28:25;;;;;;;0.22;0.22;;;5.00;46.10;;;;;;5016826;28;20080;-71
2022/03/24 08:30:51;;;;;;;1.05;0.95;;;5.20;42.40;;;;;;5023115;28;20033;-71
2022/03/24 08:33:17;;;;;;;0.25;0.25;;;5.40;38.10;;;;;;5036188;28;20041;-71
2022/03/24 08:35:44;;;;;;;0.25;0.25;;;5.60;24.80;;;;;;5035985;28;20041;-71
2022/03/24 08:38:13;;;;;;;0.30;0.30;;;5.80;32.30;;;;;;5019951;28;20041;-71
2022/03/24 08:40:45;;;;;;;0.25;0.25;;;6.00;21.90;;;;;;5019799;28;20120;-70
2022/03/24 08:45:46;;;;;;;0.77;0.77;;;6.30;1.00;;;;;;5155871;23;19921;-76
2022/03/24 08:48:12;;;;;;;0.35;0.35;;;6.60;1.00;;;;;;5035402;28;20049;-77
2022/03/24 08:50:38;;;;;;;0.60;0.60;;;6.80;1.00;;;;;;5411629;22;21040;-78
2022/03/24 08:53:05;;;;;;;0.95;0.47;;;7.00;1.00;;;;;;5016345;28;20048;-77
2022/03/24 08:55:31;;;;;;;0.25;0.25;;;7.20;1.00;;;;;;5016687;28;20054;-77
2022/03/24 08:57:57;;;;;;;0.77;0.77;;;7.40;1.00;;;;;;5016732;28;20096;-77
2022/03/24 09:00:23;;;;;;;0.38;0.38;;;7.60;1.00;;;;;;5016708;28;20053;-77
2022/03/24 09:05:24;;;;;;;0.52;0.52;;;8.00;1.00;;;;;;5091755;22;20112;-77
2022/03/24 09:07:50;;;;;;;0.70;0.70;;;8.00;1.00;;;;;;5014846;28;20042;-77
2022/03/24 09:10:16;;;;;;;0.82;0.82;;;8.00;1.00;;;;;;5015509;28;20037;-77
2022/03/24 09:12:44;;;;;;;1.02;0.90;;;8.30;1.00;;;;;;5015258;28;20038;-77
2022/03/24 09:15:11;;;;;;;1.05;1.00;;;8.70;1.00;;;;;;5015012;28;20042;-77
2022/03/24 09:17:39;;;;;;;1.30;1.10;;;8.40;1.00;;;;;;5015056;28;20602;-77
2022/03/24 09:20:09;;;;;;;1.80;1.70;;;8.90;1.00;;;;;;5014443;28;20041;-77
2022/03/24 09:22:37;;;;;;;0.67;0.67;;;8.70;1.00;;;;;;4997581;28;20540;-76
2022/03/24 09:25:04;;;;;;;0.80;0.75;;;9.10;1.00;;;;;;5014867;28;20077;-77
2022/03/24 09:30:07;;;;;;;2.58;1.35;;;9.30;1.00;;;;;;5068244;22;20058;-77
2022/03/24 09:32:34;;;;;;;2.30;0.90;;;9.30;1.00;;;;;;5016035;28;20112;-77
2022/03/24 09:34:59;;;;;;;0.75;0.75;;;9.30;1.00;;;;;;5015962;28;20042;-76
2022/03/24 09:37:25;;;;;;;0.95;0.85;;;9.30;1.00;;;;;;5015934;28;20060;-76
2022/03/24 09:39:51;;;;;;;0.30;0.30;;;9.50;1.00;;;;;;5015735;28;20038;-77
2022/03/24 09:42:21;;;;;;;0.63;0.63;;;9.70;1.00;;;;;;5015712;28;20454;-77
2022/03/24 09:44:48;;;;;;;1.05;1.05;;;9.70;1.00;;;;;;5015344;28;20046;-77
2022/03/24 09:47:14;;;;;;;0.30;0.30;;;9.80;1.00;;;;;;5015864;28;20030;-76
2022/03/24 09:49:44;;;;;;;0.17;0.17;;;10.10;1.00;;;;;;5400329;22;20069;-77
2022/03/24 09:52:11;;;;;;;0.93;0.88;;;10.30;1.00;;;;;;5016099;28;20081;-77
2022/03/24 09:54:45;;;;;;;0.70;0.70;;;10.20;1.00;;;;;;5015025;28;20096;-77
2022/03/24 09:57:12;;;;;;;0.85;0.85;;;10.30;1.00;;;;;;4998912;28;20089;-77
2022/03/24 09:59:38;;;;;;;0.45;0.45;;;10.30;99.90;;;;;;4997963;28;20038;-77
2022/03/24 10:02:06;;;;;;;0.73;0.73;;;10.80;99.90;;;;;;4997937;28;20041;-77
2022/03/24 10:04:45;;;;;;;5.28;1.98;;;10.80;99.90;;;;;;5015281;28;20107;-77
2022/03/24 10:07:12;;;;;;;0.55;0.55;;;10.90;99.90;;;;;;4997824;28;20038;-76
2022/03/24 10:12:25;;;;;;;0.73;0.73;;;10.80;99.90;;;;;;5226408;22;20062;-77
2022/03/24 10:15:09;;;;;;;0.90;0.90;;;10.80;99.90;;;;;;5014897;28;20045;-77
2022/03/24 10:17:37;;;;;;;0.32;0.32;;;10.80;99.90;;;;;;4997459;28;20033;-77
2022/03/24 10:20:16;;;;;;;0.85;0.70;;;10.80;99.90;;;;;;5015310;28;20080;-77
2022/03/24 10:22:54;;;;;;;1.45;1.35;;;11.10;99.90;;;;;;5014885;28;20037;-76
2022/03/24 10:25:26;;;;;;;1.08;0.90;;;11.00;99.90;;;;;;4997383;28;20575;-77
2022/03/24 10:28:05;;;;;;;1.38;0.95;;;11.20;99.90;;;;;;5399614;22;20070;-77
2022/03/24 10:30:51;;;;;;;0.47;0.47;;;11.30;99.90;;;;;;5015443;28;20041;-77
2022/03/24 10:33:27;;;;;;;0.68;0.68;;;11.40;99.90;;;;;;4996791;28;20387;-77
2022/03/24 10:36:14;;;;;;;1.60;1.48;;;11.30;99.90;;;;;;5014802;28;20049;-77
2022/03/24 10:38:52;;;;;;;0.70;0.70;;;11.20;99.90;;;;;;5014680;28;20037;-76
2022/03/24 10:41:21;;;;;;;0.98;0.98;;;11.40;99.90;;;;;;5014671;28;20092;-77
2022/03/24 10:43:49;;;;;;;4.03;1.95;;;11.50;99.90;;;;;;5014663;28;20030;-76
2022/03/24 10:46:25;;;;;;;1.00;0.90;;;11.40;99.90;;;;;;5014514;28;20037;-76
2022/03/24 10:48:52;;;;;;;0.22;0.22;;;11.40;99.90;;;;;;5014535;28;20038;-77
2022/03/24 10:51:25;;;;;;;1.95;0.75;;;11.60;99.90;;;;;;5014733;28;20037;-77
2022/03/24 10:53:53;;;;;;;1.00;1.00;;;11.60;99.90;;;;;;5014614;28;20174;-77
2022/03/24 10:56:43;;;;;;;1.15;1.10;;;11.70;99.90;;;;;;5014687;28;20045;-77
2022/03/24 10:59:10;;;;;;;0.60;0.60;;;11.60;99.90;;;;;;5399630;22;20065;-77
2022/03/24 11:01:37;;;;;;;0.40;0.40;;;11.70;99.90;;;;;;5014588;28;20087;-76
2022/03/24 11:04:03;;;;;;;0.68;0.68;;;11.80;99.90;;;;;;5399989;22;20016;-77
2022/03/24 11:06:30;;;;;;;0.63;0.63;;;11.90;99.90;;;;;;5014750;28;20077;-76
2022/03/24 11:09:00;;;;;;;0.40;0.40;;;11.80;99.90;;;;;;5014609;28;20033;-76
2022/03/24 11:11:27;;;;;;;0.65;0.65;;;11.80;99.90;;;;;;5014502;28;20034;-76
2022/03/24 11:13:58;;;;;;;1.55;1.15;;;11.80;99.90;;;;;;5014280;28;20038;-76
2022/03/24 11:16:32;;;;;;;0.25;0.25;;;12.00;99.90;;;;;;5014394;28;20034;-76
2022/03/24 11:19:01;;;;;;;0.50;0.50;;;12.00;99.90;;;;;;5014915;28;20092;-76
2022/03/24 11:21:51;;;;;;;1.50;1.40;;;12.10;99.90;;;;;;5014294;28;20590;-76
2022/03/24 11:26:56;;;;;;;1.75;1.40;;;12.10;99.90;;;;;;5336316;22;20061;-77
2022/03/24 11:29:22;;;;;;;0.75;0.75;;;12.20;99.90;;;;;;4996872;28;20030;-76
2022/03/24 11:31:48;;;;;;;0.57;0.57;;;12.30;99.90;;;;;;5014382;28;20045;-76
2022/03/24 11:34:17;;;;;;;0.52;0.52;;;12.30;99.90;;;;;;5014271;28;20042;-76
2022/03/24 11:36:43;;;;;;;0.65;0.65;;;12.30;99.90;;;;;;5014438;28;20041;-76
2022/03/24 11:39:11;;;;;;;1.85;1.25;;;12.50;99.90;;;;;;5014377;28;20040;-76
2022/03/24 11:41:42;;;;;;;0.73;0.73;;;12.40;99.90;;;;;;5013853;28;20531;-75
2022/03/24 11:44:38;;;;;;;0.75;0.70;;;12.50;99.90;;;;;;5016342;28;20033;-76
2022/03/24 11:47:15;;;;;;;1.20;0.75;;;12.40;99.90;;;;;;5005085;28;20495;-76
2022/03/24 11:49:41;;;;;;;1.08;0.60;;;12.50;99.90;;;;;;5018057;28;20129;-76
2022/03/24 11:52:07;;;;;;;0.45;0.45;;;12.40;99.90;;;;;;5017732;28;20041;-76
2022/03/24 11:54:36;;;;;;;0.77;0.77;;;12.30;99.90;;;;;;5017796;28;20069;-76
2022/03/24 11:57:21;;;;;;;1.95;0.70;;;12.40;99.90;;;;;;5017606;28;20060;-76
2022/03/24 11:59:47;;;;;;;1.05;1.05;;;12.40;99.90;;;;;;5018022;28;20041;-76
2022/03/24 12:02:17;;;;;;;2.45;1.83;;;12.40;99.90;;;;;;5017847;28;20041;-76
2022/03/24 12:04:46;;;;;;;0.88;0.88;;;12.60;99.90;;;;;;5018065;28;20061;-77
2022/03/24 12:07:17;;;;;;;0.57;0.57;;;12.40;99.90;;;;;;5017816;28;20072;-77
2022/03/24 12:10:01;;;;;;;1.20;0.70;;;12.50;99.90;;;;;;5017630;28;20034;-76
2022/03/24 12:12:28;;;;;;;0.82;0.45;;;12.40;99.90;;;;;;5017683;28;20541;-76
2022/03/24 12:14:55;;;;;;;0.50;0.50;;;12.50;99.90;;;;;;5017196;28;20404;-77
2022/03/24 12:17:34;;;;;;;0.60;0.60;;;12.50;99.90;;;;;;5016906;28;20037;-76
2022/03/24 12:20:03;;;;;;;0.70;0.70;;;12.50;99.90;;;;;;5017786;28;20071;-76
2022/03/24 12:22:35;;;;;;;1.10;0.75;;;12.60;99.90;;;;;;5017443;28;20034;-76
2022/03/24 12:25:02;;;;;;;0.60;0.60;;;12.60;99.90;;;;;;4999414;28;20125;-76
2022/03/24 12:27:30;;;;;;;2.67;1.27;;;12.60;99.90;;;;;;5018262;28;20062;-77
2022/03/24 12:30:15;;;;;;;0.57;0.57;;;12.50;99.90;;;;;;5005066;28;20030;-76
2022/03/24 12:32:43;;;;;;;2.13;1.95;;;12.50;99.90;;;;;;5016252;28;20068;-77
2022/03/24 12:35:47;;;;;;;1.35;1.10;;;12.50;99.90;;;;;;4996687;28;20050;-76
2022/03/24 12:38:35;;;;;;;3.25;0.57;;;12.60;99.90;;;;;;5022953;28;20109;-76
2022/03/24 12:41:06;;;;;;;0.88;0.88;;;12.70;99.90;;;;;;5016313;28;20042;-75
2022/03/24 12:44:00;;;;;;;0.90;0.90;;;12.80;99.90;;;;;;5015580;28;20605;-76
2022/03/24 12:46:28;;;;;;;0.80;0.65;;;12.70;99.90;;;;;;5015983;28;20033;-75
2022/03/24 12:48:57;;;;;;;0.57;0.57;;;12.80;99.90;;;;;;4996506;28;20093;-76
2022/03/24 12:51:30;;;;;;;3.22;1.75;;;13.00;99.90;;;;;;4997017;28;20039;-76
2022/03/24 12:54:03;;;;;;;0.75;0.52;;;12.80;99.90;;;;;;4996457;28;20038;-76
2022/03/24 12:56:34;;;;;;;0.68;0.68;;;12.90;99.90;;;;;;5004155;28;20445;-76
2022/03/24 12:59:06;;;;;;;0.98;0.95;;;13.00;99.90;;;;;;5015280;28;20030;-76
2022/03/24 13:01:39;;;;;;;0.63;0.63;;;12.90;99.90;;;;;;5007733;28;20049;-76
2022/03/24 13:04:09;;;;;;;0.65;0.65;;;12.80;99.90;;;;;;5016093;28;20120;-75
2022/03/24 13:06:37;;;;;;;1.05;0.95;;;12.80;99.90;;;;;;5000527;28;20049;-76
2022/03/24 13:09:22;;;;;;;0.52;0.52;;;12.90;99.90;;;;;;4996144;28;20036;-76
2022/03/24 13:11:54;;;;;;;0.47;0.47;;;13.10;99.90;;;;;;5012819;28;20140;-75
2022/03/24 13:14:21;;;;;;;0.88;0.88;;;13.10;99.90;;;;;;5007241;28;20044;-75
2022/03/24 13:17:10;;;;;;;1.55;0.85;;;13.00;99.90;;;;;;5016326;28;20061;-75
2022/03/24 13:19:37;;;;;;;0.60;0.60;;;13.10;99.90;;;;;;5006573;28;20042;-75